sensor_id;sensor_type;location;lat;lon;timestamp;temperature;humidity
56137;DHT22;42008;52.934;5.884;2022-08-19T00:05:54;15.00;37.00
56137;DHT22;42008;52.934;5.884;2022-08-19T00:08:19;16.10;42.90
56137;DHT22;42008;52.934;5.884;2022-08-19T00:10:45;15.60;51.20
56137;DHT22;42008;52.934;5.884;2022-08-19T00:13:11;15.60;55.20
56137;DHT22;42008;52.934;5.884;2022-08-19T00:15:36;15.80;56.50
56137;DHT22;42008;52.934;5.884;2022-08-19T00:18:03;15.50;56.30
56137;DHT22;42008;52.934;5.884;2022-08-19T00:20:28;15.90;58.10
56137;DHT22;42008;52.934;5.884;2022-08-19T00:22:54;15.60;58.20
56137;DHT22;42008;52.934;5.884;2022-08-19T00:25:20;17.10;61.80
56137;DHT22;42008;52.934;5.884;2022-08-19T00:27:45;17.00;66.90
56137;DHT22;42008;52.934;5.884;2022-08-19T00:30:12;16.20;63.60
56137;DHT22;42008;52.934;5.884;2022-08-19T00:32:37;16.40;65.70
56137;DHT22;42008;52.934;5.884;2022-08-19T00:35:04;16.00;67.60
56137;DHT22;42008;52.934;5.884;2022-08-19T00:37:30;16.30;69.50
56137;DHT22;42008;52.934;5.884;2022-08-19T00:39:55;16.90;74.80
56137;DHT22;42008;52.934;5.884;2022-08-19T00:42:22;15.80;77.80
56137;DHT22;42008;52.934;5.884;2022-08-19T00:44:48;15.60;78.60
56137;DHT22;42008;52.934;5.884;2022-08-19T00:47:14;16.10;80.80
56137;DHT22;42008;52.934;5.884;2022-08-19T00:49:45;15.60;82.80
56137;DHT22;42008;52.934;5.884;2022-08-19T00:55:21;16.10;78.40
56137;DHT22;42008;52.934;5.884;2022-08-19T00:57:55;16.50;80.40
56137;DHT22;42008;52.934;5.884;2022-08-19T01:00:23;15.70;82.50
56137;DHT22;42008;52.934;5.884;2022-08-19T01:02:49;15.40;81.90
56137;DHT22;42008;52.934;5.884;2022-08-19T01:05:18;15.70;78.60
56137;DHT22;42008;52.934;5.884;2022-08-19T01:07:47;15.50;68.00
56137;DHT22;42008;52.934;5.884;2022-08-19T01:10:16;15.30;70.40
56137;DHT22;42008;52.934;5.884;2022-08-19T01:12:45;15.30;74.60
56137;DHT22;42008;52.934;5.884;2022-08-19T01:15:12;15.50;78.90
56137;DHT22;42008;52.934;5.884;2022-08-19T01:17:40;15.40;78.90
56137;DHT22;42008;52.934;5.884;2022-08-19T01:20:12;15.50;76.40
56137;DHT22;42008;52.934;5.884;2022-08-19T01:22:47;15.60;74.50
56137;DHT22;42008;52.934;5.884;2022-08-19T01:25:16;15.20;71.10
56137;DHT22;42008;52.934;5.884;2022-08-19T01:27:45;15.30;72.10
56137;DHT22;42008;52.934;5.884;2022-08-19T01:30:17;15.10;76.20
56137;DHT22;42008;52.934;5.884;2022-08-19T01:32:44;15.50;76.20
56137;DHT22;42008;52.934;5.884;2022-08-19T01:35:11;15.40;70.60
56137;DHT22;42008;52.934;5.884;2022-08-19T01:38:04;15.20;73.00
56137;DHT22;42008;52.934;5.884;2022-08-19T01:40:36;15.30;77.60
56137;DHT22;42008;52.934;5.884;2022-08-19T01:43:03;15.50;86.60
56137;DHT22;42008;52.934;5.884;2022-08-19T01:45:31;15.60;82.90
56137;DHT22;42008;52.934;5.884;2022-08-19T01:47:57;14.90;84.60
56137;DHT22;42008;52.934;5.884;2022-08-19T01:50:23;15.10;90.90
56137;DHT22;42008;52.934;5.884;2022-08-19T01:52:49;14.00;90.90
56137;DHT22;42008;52.934;5.884;2022-08-19T01:55:18;15.00;91.30
56137;DHT22;42008;52.934;5.884;2022-08-19T01:57:48;15.50;91.90
56137;DHT22;42008;52.934;5.884;2022-08-19T02:00:18;15.10;97.30
56137;DHT22;42008;52.934;5.884;2022-08-19T02:02:44;14.10;99.90
56137;DHT22;42008;52.934;5.884;2022-08-19T02:05:11;15.10;99.90
56137;DHT22;42008;52.934;5.884;2022-08-19T02:07:39;15.30;99.90
56137;DHT22;42008;52.934;5.884;2022-08-19T02:10:07;15.20;99.90
56137;DHT22;42008;52.934;5.884;2022-08-19T02:12:34;14.40;99.90
56137;DHT22;42008;52.934;5.884;2022-08-19T02:14:59;14.80;99.90
56137;DHT22;42008;52.934;5.884;2022-08-19T02:17:27;15.20;99.90
56137;DHT22;42008;52.934;5.884;2022-08-19T02:19:54;15.00;99.90
56137;DHT22;42008;52.934;5.884;2022-08-19T02:22:20;14.00;99.90
56137;DHT22;42008;52.934;5.884;2022-08-19T02:24:46;13.90;99.90
56137;DHT22;42008;52.934;5.884;2022-08-19T02:27:13;15.20;99.90
56137;DHT22;42008;52.934;5.884;2022-08-19T02:29:39;13.90;99.90
56137;DHT22;42008;52.934;5.884;2022-08-19T02:32:05;15.40;99.90
56137;DHT22;42008;52.934;5.884;2022-08-19T02:34:30;14.30;99.90
56137;DHT22;42008;52.934;5.884;2022-08-19T02:36:56;15.00;99.90
56137;DHT22;42008;52.934;5.884;2022-08-19T02:39:22;15.50;99.90
56137;DHT22;42008;52.934;5.884;2022-08-19T02:41:47;15.30;99.90
56137;DHT22;42008;52.934;5.884;2022-08-19T02:44:15;15.00;99.90
56137;DHT22;42008;52.934;5.884;2022-08-19T02:46:40;15.10;99.90
56137;DHT22;42008;52.934;5.884;2022-08-19T02:49:07;13.70;99.90
56137;DHT22;42008;52.934;5.884;2022-08-19T02:51:36;13.90;99.90
56137;DHT22;42008;52.934;5.884;2022-08-19T02:54:02;14.90;99.90
56137;DHT22;42008;52.934;5.884;2022-08-19T02:56:28;15.40;99.90
56137;DHT22;42008;52.934;5.884;2022-08-19T02:58:54;15.00;99.90
56137;DHT22;42008;52.934;5.884;2022-08-19T03:01:23;14.00;99.90
56137;DHT22;42008;52.934;5.884;2022-08-19T03:03:49;15.00;99.90
56137;DHT22;42008;52.934;5.884;2022-08-19T03:06:16;15.10;99.90
56137;DHT22;42008;52.934;5.884;2022-08-19T03:08:44;15.30;99.90
56137;DHT22;42008;52.934;5.884;2022-08-19T03:11:31;13.80;99.90
56137;DHT22;42008;52.934;5.884;2022-08-19T03:13:58;15.20;99.90
56137;DHT22;42008;52.934;5.884;2022-08-19T03:16:25;15.00;99.90
56137;DHT22;42008;52.934;5.884;2022-08-19T03:18:52;13.90;99.90
56137;DHT22;42008;52.934;5.884;2022-08-19T03:21:22;15.20;99.90
56137;DHT22;42008;52.934;5.884;2022-08-19T03:23:49;14.30;99.90
56137;DHT22;42008;52.934;5.884;2022-08-19T03:26:15;15.30;99.90
56137;DHT22;42008;52.934;5.884;2022-08-19T03:28:42;14.70;99.90
56137;DHT22;42008;52.934;5.884;2022-08-19T03:31:11;15.10;99.90
56137;DHT22;42008;52.934;5.884;2022-08-19T03:33:38;15.60;99.90
56137;DHT22;42008;52.934;5.884;2022-08-19T03:36:11;15.20;99.90
56137;DHT22;42008;52.934;5.884;2022-08-19T03:38:40;15.50;99.90
56137;DHT22;42008;52.934;5.884;2022-08-19T03:41:16;15.30;99.90
56137;DHT22;42008;52.934;5.884;2022-08-19T03:43:43;15.20;99.90
56137;DHT22;42008;52.934;5.884;2022-08-19T03:46:14;14.80;99.90
56137;DHT22;42008;52.934;5.884;2022-08-19T03:48:41;14.80;99.90
56137;DHT22;42008;52.934;5.884;2022-08-19T03:51:07;14.00;99.90
56137;DHT22;42008;52.934;5.884;2022-08-19T03:53:34;15.10;99.90
56137;DHT22;42008;52.934;5.884;2022-08-19T03:56:01;14.10;99.90
56137;DHT22;42008;52.934;5.884;2022-08-19T03:58:28;14.40;99.90
56137;DHT22;42008;52.934;5.884;2022-08-19T04:00:56;14.00;99.90
56137;DHT22;42008;52.934;5.884;2022-08-19T04:03:23;14.90;99.90
56137;DHT22;42008;52.934;5.884;2022-08-19T04:05:49;15.00;99.90
56137;DHT22;42008;52.934;5.884;2022-08-19T04:08:15;15.50;99.90
56137;DHT22;42008;52.934;5.884;2022-08-19T04:10:47;15.60;99.90
56137;DHT22;42008;52.934;5.884;2022-08-19T04:13:17;14.00;99.90
56137;DHT22;42008;52.934;5.884;2022-08-19T04:15:45;15.00;99.90
56137;DHT22;42008;52.934;5.884;2022-08-19T04:18:12;14.10;99.90
56137;DHT22;42008;52.934;5.884;2022-08-19T04:20:43;15.30;99.90
56137;DHT22;42008;52.934;5.884;2022-08-19T04:23:09;15.20;99.90
56137;DHT22;42008;52.934;5.884;2022-08-19T04:25:40;13.80;99.90
56137;DHT22;42008;52.934;5.884;2022-08-19T04:28:06;15.20;99.90
56137;DHT22;42008;52.934;5.884;2022-08-19T04:30:40;13.90;99.90
56137;DHT22;42008;52.934;5.884;2022-08-19T04:33:08;14.50;99.90
56137;DHT22;42008;52.934;5.884;2022-08-19T04:35:36;14.00;99.90
56137;DHT22;42008;52.934;5.884;2022-08-19T04:38:02;15.10;99.90
56137;DHT22;42008;52.934;5.884;2022-08-19T04:40:28;15.10;99.90
56137;DHT22;42008;52.934;5.884;2022-08-19T04:43:12;15.40;99.90
56137;DHT22;42008;52.934;5.884;2022-08-19T04:45:42;14.00;99.90
56137;DHT22;42008;52.934;5.884;2022-08-19T04:48:08;15.90;99.90
56137;DHT22;42008;52.934;5.884;2022-08-19T04:50:35;15.20;99.90
56137;DHT22;42008;52.934;5.884;2022-08-19T04:53:01;15.00;99.90
56137;DHT22;42008;52.934;5.884;2022-08-19T04:55:26;15.40;99.90
56137;DHT22;42008;52.934;5.884;2022-08-19T04:57:52;15.00;99.90
56137;DHT22;42008;52.934;5.884;2022-08-19T05:00:18;15.60;99.90
56137;DHT22;42008;52.934;5.884;2022-08-19T05:02:43;15.20;99.90
56137;DHT22;42008;52.934;5.884;2022-08-19T05:05:09;15.40;99.90
56137;DHT22;42008;52.934;5.884;2022-08-19T05:07:35;15.10;99.90
56137;DHT22;42008;52.934;5.884;2022-08-19T05:10:02;15.40;99.90
56137;DHT22;42008;52.934;5.884;2022-08-19T05:12:28;14.90;99.90
56137;DHT22;42008;52.934;5.884;2022-08-19T05:14:54;15.00;99.90
56137;DHT22;42008;52.934;5.884;2022-08-19T05:17:19;15.40;99.90
56137;DHT22;42008;52.934;5.884;2022-08-19T05:19:45;14.20;99.90
56137;DHT22;42008;52.934;5.884;2022-08-19T05:22:29;14.90;99.90
56137;DHT22;42008;52.934;5.884;2022-08-19T05:25:07;14.00;99.90
56137;DHT22;42008;52.934;5.884;2022-08-19T05:27:33;16.00;99.90
56137;DHT22;42008;52.934;5.884;2022-08-19T05:29:59;15.20;99.90
56137;DHT22;42008;52.934;5.884;2022-08-19T05:32:25;15.80;99.90
56137;DHT22;42008;52.934;5.884;2022-08-19T05:34:50;15.70;99.90
56137;DHT22;42008;52.934;5.884;2022-08-19T05:37:16;15.70;99.90
56137;DHT22;42008;52.934;5.884;2022-08-19T05:39:42;15.70;99.90
56137;DHT22;42008;52.934;5.884;2022-08-19T05:42:11;15.90;99.90
56137;DHT22;42008;52.934;5.884;2022-08-19T05:44:41;16.10;99.90
56137;DHT22;42008;52.934;5.884;2022-08-19T05:47:12;15.80;99.90
56137;DHT22;42008;52.934;5.884;2022-08-19T05:49:38;15.70;99.90
56137;DHT22;42008;52.934;5.884;2022-08-19T05:52:06;16.00;99.90
56137;DHT22;42008;52.934;5.884;2022-08-19T05:54:32;16.40;99.90
56137;DHT22;42008;52.934;5.884;2022-08-19T05:56:58;15.70;99.90
56137;DHT22;42008;52.934;5.884;2022-08-19T05:59:25;16.20;99.90
56137;DHT22;42008;52.934;5.884;2022-08-19T06:01:52;17.30;99.90
56137;DHT22;42008;52.934;5.884;2022-08-19T06:04:20;16.10;99.90
56137;DHT22;42008;52.934;5.884;2022-08-19T06:06:48;17.30;99.90
56137;DHT22;42008;52.934;5.884;2022-08-19T06:09:14;16.20;99.90
56137;DHT22;42008;52.934;5.884;2022-08-19T06:14:16;17.10;99.90
56137;DHT22;42008;52.934;5.884;2022-08-19T06:16:43;17.20;99.90
56137;DHT22;42008;52.934;5.884;2022-08-19T06:19:12;16.50;99.90
56137;DHT22;42008;52.934;5.884;2022-08-19T06:21:40;17.90;99.90
56137;DHT22;42008;52.934;5.884;2022-08-19T06:24:08;17.90;99.90
56137;DHT22;42008;52.934;5.884;2022-08-19T06:26:36;16.40;99.90
56137;DHT22;42008;52.934;5.884;2022-08-19T06:29:03;17.90;99.90
56137;DHT22;42008;52.934;5.884;2022-08-19T06:31:31;18.10;99.90
56137;DHT22;42008;52.934;5.884;2022-08-19T06:34:02;18.00;99.90
56137;DHT22;42008;52.934;5.884;2022-08-19T06:36:36;17.30;99.90
56137;DHT22;42008;52.934;5.884;2022-08-19T06:39:05;17.80;99.90
56137;DHT22;42008;52.934;5.884;2022-08-19T06:41:38;18.00;99.90
56137;DHT22;42008;52.934;5.884;2022-08-19T06:44:04;17.50;99.90
56137;DHT22;42008;52.934;5.884;2022-08-19T06:46:30;18.30;99.90
56137;DHT22;42008;52.934;5.884;2022-08-19T06:48:56;18.00;99.90
56137;DHT22;42008;52.934;5.884;2022-08-19T06:51:23;18.10;99.90
56137;DHT22;42008;52.934;5.884;2022-08-19T06:53:51;19.60;99.90
56137;DHT22;42008;52.934;5.884;2022-08-19T06:56:20;18.80;99.90
56137;DHT22;42008;52.934;5.884;2022-08-19T06:58:46;18.60;99.90
56137;DHT22;42008;52.934;5.884;2022-08-19T07:01:13;18.50;99.90
56137;DHT22;42008;52.934;5.884;2022-08-19T07:03:39;18.60;99.90
56137;DHT22;42008;52.934;5.884;2022-08-19T07:06:11;18.50;99.90
56137;DHT22;42008;52.934;5.884;2022-08-19T07:08:37;18.10;99.90
56137;DHT22;42008;52.934;5.884;2022-08-19T07:11:07;18.60;99.90
56137;DHT22;42008;52.934;5.884;2022-08-19T07:13:34;19.70;99.90
56137;DHT22;42008;52.934;5.884;2022-08-19T07:16:07;19.20;99.90
56137;DHT22;42008;52.934;5.884;2022-08-19T07:18:33;19.80;99.90
56137;DHT22;42008;52.934;5.884;2022-08-19T07:21:07;20.10;99.90
56137;DHT22;42008;52.934;5.884;2022-08-19T07:23:34;19.90;99.90
56137;DHT22;42008;52.934;5.884;2022-08-19T07:26:12;20.70;99.90
56137;DHT22;42008;52.934;5.884;2022-08-19T07:28:38;19.90;99.90
56137;DHT22;42008;52.934;5.884;2022-08-19T07:31:07;20.40;99.90
56137;DHT22;42008;52.934;5.884;2022-08-19T07:33:34;19.30;99.90
56137;DHT22;42008;52.934;5.884;2022-08-19T07:36:04;20.80;99.90
56137;DHT22;42008;52.934;5.884;2022-08-19T07:38:32;20.30;99.90
56137;DHT22;42008;52.934;5.884;2022-08-19T07:40:58;21.00;99.90
56137;DHT22;42008;52.934;5.884;2022-08-19T07:43:23;21.10;99.90
56137;DHT22;42008;52.934;5.884;2022-08-19T07:45:54;21.20;99.90
56137;DHT22;42008;52.934;5.884;2022-08-19T07:48:23;21.40;99.90
56137;DHT22;42008;52.934;5.884;2022-08-19T07:50:55;21.10;98.80
56137;DHT22;42008;52.934;5.884;2022-08-19T07:53:24;21.60;99.90
56137;DHT22;42008;52.934;5.884;2022-08-19T08:03:13;20.50;97.40
56137;DHT22;42008;52.934;5.884;2022-08-19T08:05:40;22.20;99.90
56137;DHT22;42008;52.934;5.884;2022-08-19T08:08:24;21.60;97.80
56137;DHT22;42008;52.934;5.884;2022-08-19T08:11:08;21.70;99.90
56137;DHT22;42008;52.934;5.884;2022-08-19T08:13:34;21.20;94.90
56137;DHT22;42008;52.934;5.884;2022-08-19T08:16:03;22.00;87.90
56137;DHT22;42008;52.934;5.884;2022-08-19T08:18:29;22.60;88.60
56137;DHT22;42008;52.934;5.884;2022-08-19T08:20:56;21.60;63.70
56137;DHT22;42008;52.934;5.884;2022-08-19T08:23:22;21.60;42.10
56137;DHT22;42008;52.934;5.884;2022-08-19T08:25:54;23.20;56.20
56137;DHT22;42008;52.934;5.884;2022-08-19T08:28:20;21.80;38.00
56137;DHT22;42008;52.934;5.884;2022-08-19T08:30:47;22.10;37.90
56137;DHT22;42008;52.934;5.884;2022-08-19T08:33:21;23.50;22.00
56137;DHT22;42008;52.934;5.884;2022-08-19T08:35:47;21.30;14.40
56137;DHT22;42008;52.934;5.884;2022-08-19T08:38:14;21.40;11.00
56137;DHT22;42008;52.934;5.884;2022-08-19T08:40:57;23.50;12.50
56137;DHT22;42008;52.934;5.884;2022-08-19T08:43:38;23.60;10.50
56137;DHT22;42008;52.934;5.884;2022-08-19T08:46:27;23.20;8.00
56137;DHT22;42008;52.934;5.884;2022-08-19T08:48:57;23.00;1.00
56137;DHT22;42008;52.934;5.884;2022-08-19T08:51:38;22.10;1.00
56137;DHT22;42008;52.934;5.884;2022-08-19T08:54:07;22.90;18.20
56137;DHT22;42008;52.934;5.884;2022-08-19T08:56:33;23.60;4.10
56137;DHT22;42008;52.934;5.884;2022-08-19T08:59:05;22.30;1.00
56137;DHT22;42008;52.934;5.884;2022-08-19T09:01:33;23.70;1.00
56137;DHT22;42008;52.934;5.884;2022-08-19T09:03:59;23.50;1.00
56137;DHT22;42008;52.934;5.884;2022-08-19T09:09:14;22.80;1.00
56137;DHT22;42008;52.934;5.884;2022-08-19T09:14:20;23.90;1.00
56137;DHT22;42008;52.934;5.884;2022-08-19T09:16:52;23.60;1.00
56137;DHT22;42008;52.934;5.884;2022-08-19T09:19:17;24.00;1.00
56137;DHT22;42008;52.934;5.884;2022-08-19T09:21:44;23.70;1.00
56137;DHT22;42008;52.934;5.884;2022-08-19T09:24:12;23.80;1.00
56137;DHT22;42008;52.934;5.884;2022-08-19T09:26:37;24.00;1.00
56137;DHT22;42008;52.934;5.884;2022-08-19T09:29:03;24.30;1.00
56137;DHT22;42008;52.934;5.884;2022-08-19T09:31:31;24.20;1.00
56137;DHT22;42008;52.934;5.884;2022-08-19T09:33:58;24.40;1.00
56137;DHT22;42008;52.934;5.884;2022-08-19T09:36:26;24.20;1.00
56137;DHT22;42008;52.934;5.884;2022-08-19T09:38:54;24.20;1.00
56137;DHT22;42008;52.934;5.884;2022-08-19T09:41:23;23.90;1.00
56137;DHT22;42008;52.934;5.884;2022-08-19T09:43:52;24.10;1.00
56137;DHT22;42008;52.934;5.884;2022-08-19T09:46:18;24.10;1.00
56137;DHT22;42008;52.934;5.884;2022-08-19T09:48:47;23.80;1.00
56137;DHT22;42008;52.934;5.884;2022-08-19T09:51:16;24.20;1.00
56137;DHT22;42008;52.934;5.884;2022-08-19T09:53:47;24.50;1.00
56137;DHT22;42008;52.934;5.884;2022-08-19T09:56:16;26.20;1.00
56137;DHT22;42008;52.934;5.884;2022-08-19T09:58:42;24.40;1.00
56137;DHT22;42008;52.934;5.884;2022-08-19T10:01:09;24.50;1.00
56137;DHT22;42008;52.934;5.884;2022-08-19T10:03:36;25.80;1.00
56137;DHT22;42008;52.934;5.884;2022-08-19T10:06:04;26.00;1.00
56137;DHT22;42008;52.934;5.884;2022-08-19T10:08:35;23.90;1.00
56137;DHT22;42008;52.934;5.884;2022-08-19T10:11:03;24.40;1.00
56137;DHT22;42008;52.934;5.884;2022-08-19T10:13:30;24.70;1.00
56137;DHT22;42008;52.934;5.884;2022-08-19T10:16:03;25.00;1.00
56137;DHT22;42008;52.934;5.884;2022-08-19T10:18:29;24.60;1.00
56137;DHT22;42008;52.934;5.884;2022-08-19T10:21:04;24.50;1.00
56137;DHT22;42008;52.934;5.884;2022-08-19T10:23:32;25.70;1.00
56137;DHT22;42008;52.934;5.884;2022-08-19T10:26:00;25.00;1.00
56137;DHT22;42008;52.934;5.884;2022-08-19T10:28:25;25.00;1.00
56137;DHT22;42008;52.934;5.884;2022-08-19T10:30:51;25.70;1.00
56137;DHT22;42008;52.934;5.884;2022-08-19T10:33:17;25.00;1.00
56137;DHT22;42008;52.934;5.884;2022-08-19T10:35:42;25.10;1.00
56137;DHT22;42008;52.934;5.884;2022-08-19T10:38:08;24.40;1.00
56137;DHT22;42008;52.934;5.884;2022-08-19T10:40:33;25.20;1.00
56137;DHT22;42008;52.934;5.884;2022-08-19T10:42:59;24.90;1.00
56137;DHT22;42008;52.934;5.884;2022-08-19T10:45:25;25.10;1.00
56137;DHT22;42008;52.934;5.884;2022-08-19T10:47:52;25.00;1.00
56137;DHT22;42008;52.934;5.884;2022-08-19T10:50:18;25.20;1.00
56137;DHT22;42008;52.934;5.884;2022-08-19T10:53:07;25.00;1.00
56137;DHT22;42008;52.934;5.884;2022-08-19T10:55:36;25.10;1.00
56137;DHT22;42008;52.934;5.884;2022-08-19T10:58:21;24.90;1.00
56137;DHT22;42008;52.934;5.884;2022-08-19T11:00:57;25.30;1.00
56137;DHT22;42008;52.934;5.884;2022-08-19T11:03:23;26.20;1.00
56137;DHT22;42008;52.934;5.884;2022-08-19T11:06:05;25.00;1.00
56137;DHT22;42008;52.934;5.884;2022-08-19T11:08:31;26.00;1.00
56137;DHT22;42008;52.934;5.884;2022-08-19T11:11:00;25.10;1.00
56137;DHT22;42008;52.934;5.884;2022-08-19T11:13:36;25.00;1.00
56137;DHT22;42008;52.934;5.884;2022-08-19T11:16:14;25.40;1.00
56137;DHT22;42008;52.934;5.884;2022-08-19T11:18:46;26.20;1.00
56137;DHT22;42008;52.934;5.884;2022-08-19T11:21:30;26.90;1.00
56137;DHT22;42008;52.934;5.884;2022-08-19T11:23:59;26.50;1.00
56137;DHT22;42008;52.934;5.884;2022-08-19T11:26:26;26.70;1.00
56137;DHT22;42008;52.934;5.884;2022-08-19T11:28:52;25.60;1.00
56137;DHT22;42008;52.934;5.884;2022-08-19T11:31:23;26.40;1.00
56137;DHT22;42008;52.934;5.884;2022-08-19T11:33:49;26.30;1.00
56137;DHT22;42008;52.934;5.884;2022-08-19T11:36:18;27.10;1.00
56137;DHT22;42008;52.934;5.884;2022-08-19T11:38:46;25.20;1.00
56137;DHT22;42008;52.934;5.884;2022-08-19T11:41:13;26.20;1.00
56137;DHT22;42008;52.934;5.884;2022-08-19T11:43:39;24.90;1.00
56137;DHT22;42008;52.934;5.884;2022-08-19T11:46:07;25.40;1.00
56137;DHT22;42008;52.934;5.884;2022-08-19T11:48:34;26.80;1.00
56137;DHT22;42008;52.934;5.884;2022-08-19T11:51:04;26.70;1.00
56137;DHT22;42008;52.934;5.884;2022-08-19T11:53:32;24.80;1.00
56137;DHT22;42008;52.934;5.884;2022-08-19T11:55:58;25.40;1.00
56137;DHT22;42008;52.934;5.884;2022-08-19T11:58:23;25.30;1.00
56137;DHT22;42008;52.934;5.884;2022-08-19T12:00:50;27.40;1.00
56137;DHT22;42008;52.934;5.884;2022-08-19T12:03:16;25.60;1.00
56137;DHT22;42008;52.934;5.884;2022-08-19T12:05:41;25.80;1.00
56137;DHT22;42008;52.934;5.884;2022-08-19T12:08:08;25.60;1.00
56137;DHT22;42008;52.934;5.884;2022-08-19T12:10:34;27.10;1.00
56137;DHT22;42008;52.934;5.884;2022-08-19T12:13:00;26.80;1.00
56137;DHT22;42008;52.934;5.884;2022-08-19T12:15:27;24.60;1.00
56137;DHT22;42008;52.934;5.884;2022-08-19T12:17:54;25.90;1.00
56137;DHT22;42008;52.934;5.884;2022-08-19T12:20:23;25.00;1.00
56137;DHT22;42008;52.934;5.884;2022-08-19T12:22:49;25.10;1.00
56137;DHT22;42008;52.934;5.884;2022-08-19T12:25:16;25.50;1.00
56137;DHT22;42008;52.934;5.884;2022-08-19T12:27:42;27.50;1.00
56137;DHT22;42008;52.934;5.884;2022-08-19T12:30:10;26.90;1.00
56137;DHT22;42008;52.934;5.884;2022-08-19T12:32:37;24.80;1.00
56137;DHT22;42008;52.934;5.884;2022-08-19T12:35:03;25.10;1.00
56137;DHT22;42008;52.934;5.884;2022-08-19T12:37:29;26.30;1.00
56137;DHT22;42008;52.934;5.884;2022-08-19T12:39:56;26.70;1.00
56137;DHT22;42008;52.934;5.884;2022-08-19T12:42:22;27.30;1.00
56137;DHT22;42008;52.934;5.884;2022-08-19T12:44:47;27.60;1.00
56137;DHT22;42008;52.934;5.884;2022-08-19T12:47:13;25.00;1.00
56137;DHT22;42008;52.934;5.884;2022-08-19T12:49:39;26.60;1.00
56137;DHT22;42008;52.934;5.884;2022-08-19T12:52:07;26.50;1.00
56137;DHT22;42008;52.934;5.884;2022-08-19T12:54:36;24.80;1.00
56137;DHT22;42008;52.934;5.884;2022-08-19T12:57:07;23.70;1.00
56137;DHT22;42008;52.934;5.884;2022-08-19T12:59:34;23.70;1.00
56137;DHT22;42008;52.934;5.884;2022-08-19T13:02:00;24.30;1.00
56137;DHT22;42008;52.934;5.884;2022-08-19T13:04:25;24.40;1.00
56137;DHT22;42008;52.934;5.884;2022-08-19T13:06:51;23.80;1.00
56137;DHT22;42008;52.934;5.884;2022-08-19T13:09:17;24.20;1.00
56137;DHT22;42008;52.934;5.884;2022-08-19T13:11:42;23.60;1.00
56137;DHT22;42008;52.934;5.884;2022-08-19T13:14:09;24.10;1.00
56137;DHT22;42008;52.934;5.884;2022-08-19T13:16:36;23.50;1.00
56137;DHT22;42008;52.934;5.884;2022-08-19T13:19:04;23.80;1.00
56137;DHT22;42008;52.934;5.884;2022-08-19T13:21:30;23.30;1.00
56137;DHT22;42008;52.934;5.884;2022-08-19T13:23:56;24.40;1.00
56137;DHT22;42008;52.934;5.884;2022-08-19T13:26:23;23.60;1.00
56137;DHT22;42008;52.934;5.884;2022-08-19T13:28:49;23.60;1.00
56137;DHT22;42008;52.934;5.884;2022-08-19T13:31:35;23.40;1.00
56137;DHT22;42008;52.934;5.884;2022-08-19T13:34:29;23.60;1.00
56137;DHT22;42008;52.934;5.884;2022-08-19T13:36:55;24.20;1.00
56137;DHT22;42008;52.934;5.884;2022-08-19T13:39:20;23.70;1.00
56137;DHT22;42008;52.934;5.884;2022-08-19T13:41:48;24.60;1.00
56137;DHT22;42008;52.934;5.884;2022-08-19T13:44:16;24.30;1.00
56137;DHT22;42008;52.934;5.884;2022-08-19T13:46:43;23.90;1.00
56137;DHT22;42008;52.934;5.884;2022-08-19T13:49:12;24.60;1.00
56137;DHT22;42008;52.934;5.884;2022-08-19T13:51:41;24.50;1.00
56137;DHT22;42008;52.934;5.884;2022-08-19T13:54:07;24.20;1.00
56137;DHT22;42008;52.934;5.884;2022-08-19T13:56:34;26.90;1.00
56137;DHT22;42008;52.934;5.884;2022-08-19T13:59:00;24.50;1.00
56137;DHT22;42008;52.934;5.884;2022-08-19T14:01:26;24.70;1.00
56137;DHT22;42008;52.934;5.884;2022-08-19T14:03:52;24.80;1.00
56137;DHT22;42008;52.934;5.884;2022-08-19T14:06:18;24.10;1.00
56137;DHT22;42008;52.934;5.884;2022-08-19T14:08:44;24.50;1.00
56137;DHT22;42008;52.934;5.884;2022-08-19T14:11:10;24.20;1.00
56137;DHT22;42008;52.934;5.884;2022-08-19T14:13:36;24.50;1.00
56137;DHT22;42008;52.934;5.884;2022-08-19T14:16:07;24.30;1.00
56137;DHT22;42008;52.934;5.884;2022-08-19T14:18:34;25.20;1.00
56137;DHT22;42008;52.934;5.884;2022-08-19T14:20:59;24.10;1.00
56137;DHT22;42008;52.934;5.884;2022-08-19T14:23:25;24.60;1.00
56137;DHT22;42008;52.934;5.884;2022-08-19T14:25:50;23.90;1.00
56137;DHT22;42008;52.934;5.884;2022-08-19T14:28:16;24.00;1.00
56137;DHT22;42008;52.934;5.884;2022-08-19T14:30:42;24.00;1.00
56137;DHT22;42008;52.934;5.884;2022-08-19T14:33:09;23.80;1.00
56137;DHT22;42008;52.934;5.884;2022-08-19T14:35:36;24.10;1.00
56137;DHT22;42008;52.934;5.884;2022-08-19T14:38:04;23.70;1.00
56137;DHT22;42008;52.934;5.884;2022-08-19T14:40:30;24.40;1.00
56137;DHT22;42008;52.934;5.884;2022-08-19T14:42:59;24.30;1.00
56137;DHT22;42008;52.934;5.884;2022-08-19T14:45:28;24.20;1.00
56137;DHT22;42008;52.934;5.884;2022-08-19T14:47:54;25.30;1.00
56137;DHT22;42008;52.934;5.884;2022-08-19T14:50:20;23.90;1.00
56137;DHT22;42008;52.934;5.884;2022-08-19T14:52:46;26.10;1.00
56137;DHT22;42008;52.934;5.884;2022-08-19T14:55:13;24.10;1.00
56137;DHT22;42008;52.934;5.884;2022-08-19T14:57:41;23.90;1.00
56137;DHT22;42008;52.934;5.884;2022-08-19T15:00:07;24.20;1.00
56137;DHT22;42008;52.934;5.884;2022-08-19T15:02:37;23.20;1.00
56137;DHT22;42008;52.934;5.884;2022-08-19T15:05:02;23.90;1.00
56137;DHT22;42008;52.934;5.884;2022-08-19T15:07:28;23.30;1.00
56137;DHT22;42008;52.934;5.884;2022-08-19T15:09:54;23.30;1.00
56137;DHT22;42008;52.934;5.884;2022-08-19T15:12:20;22.20;1.00
56137;DHT22;42008;52.934;5.884;2022-08-19T15:14:47;23.90;1.00
56137;DHT22;42008;52.934;5.884;2022-08-19T15:17:16;23.50;1.00
56137;DHT22;42008;52.934;5.884;2022-08-19T15:19:41;24.00;1.00
56137;DHT22;42008;52.934;5.884;2022-08-19T15:22:07;24.00;1.00
56137;DHT22;42008;52.934;5.884;2022-08-19T15:24:33;24.60;1.00
56137;DHT22;42008;52.934;5.884;2022-08-19T15:27:00;24.40;1.00
56137;DHT22;42008;52.934;5.884;2022-08-19T15:29:26;24.10;1.00
56137;DHT22;42008;52.934;5.884;2022-08-19T15:31:52;26.00;1.00
56137;DHT22;42008;52.934;5.884;2022-08-19T15:34:21;24.90;1.00
56137;DHT22;42008;52.934;5.884;2022-08-19T15:36:47;26.60;1.00
56137;DHT22;42008;52.934;5.884;2022-08-19T15:39:12;27.10;1.00
56137;DHT22;42008;52.934;5.884;2022-08-19T15:41:38;27.70;1.00
56137;DHT22;42008;52.934;5.884;2022-08-19T15:44:07;24.70;1.00
56137;DHT22;42008;52.934;5.884;2022-08-19T15:46:35;24.50;1.00
56137;DHT22;42008;52.934;5.884;2022-08-19T15:49:02;24.50;1.00
56137;DHT22;42008;52.934;5.884;2022-08-19T15:51:31;24.50;1.00
56137;DHT22;42008;52.934;5.884;2022-08-19T15:53:59;24.10;1.00
56137;DHT22;42008;52.934;5.884;2022-08-19T15:56:26;25.90;1.00
56137;DHT22;42008;52.934;5.884;2022-08-19T15:58:51;25.40;1.00
56137;DHT22;42008;52.934;5.884;2022-08-19T16:01:35;26.70;1.00
56137;DHT22;42008;52.934;5.884;2022-08-19T16:04:20;24.80;1.00
56137;DHT22;42008;52.934;5.884;2022-08-19T16:07:04;24.20;1.00